sensor_id;sensor_type;location;lat;lon;timestamp;temperature;humidity
48376;DHT22;34178;50.904;11.560;2024-01-15T00:01:17;1.30;99.90
48376;DHT22;34178;50.904;11.560;2024-01-15T00:03:43;1.30;99.90
48376;DHT22;34178;50.904;11.560;2024-01-15T00:06:08;1.30;99.90
48376;DHT22;34178;50.904;11.560;2024-01-15T00:08:34;1.30;99.90
48376;DHT22;34178;50.904;11.560;2024-01-15T00:10:59;1.30;99.90
48376;DHT22;34178;50.904;11.560;2024-01-15T00:13:25;1.30;99.90
48376;DHT22;34178;50.904;11.560;2024-01-15T00:15:50;1.30;99.90
48376;DHT22;34178;50.904;11.560;2024-01-15T00:18:16;1.30;99.90
48376;DHT22;34178;50.904;11.560;2024-01-15T00:20:41;1.30;99.90
48376;DHT22;34178;50.904;11.560;2024-01-15T00:23:07;1.30;99.90
48376;DHT22;34178;50.904;11.560;2024-01-15T00:25:33;1.30;99.90
48376;DHT22;34178;50.904;11.560;2024-01-15T00:27:58;1.20;99.90
48376;DHT22;34178;50.904;11.560;2024-01-15T00:30:24;1.30;99.90
48376;DHT22;34178;50.904;11.560;2024-01-15T00:32:49;1.30;99.90
48376;DHT22;34178;50.904;11.560;2024-01-15T00:35:15;1.30;99.90
48376;DHT22;34178;50.904;11.560;2024-01-15T00:37:40;1.30;99.90
48376;DHT22;34178;50.904;11.560;2024-01-15T00:40:06;1.30;99.90
48376;DHT22;34178;50.904;11.560;2024-01-15T00:42:33;1.30;99.90
48376;DHT22;34178;50.904;11.560;2024-01-15T00:44:58;1.30;99.90
48376;DHT22;34178;50.904;11.560;2024-01-15T00:47:24;1.30;99.90
48376;DHT22;34178;50.904;11.560;2024-01-15T00:49:49;1.30;99.90
48376;DHT22;34178;50.904;11.560;2024-01-15T00:52:15;1.20;99.90
48376;DHT22;34178;50.904;11.560;2024-01-15T00:54:41;1.20;99.90
48376;DHT22;34178;50.904;11.560;2024-01-15T00:57:06;1.20;99.90
48376;DHT22;34178;50.904;11.560;2024-01-15T00:59:32;1.20;99.90
48376;DHT22;34178;50.904;11.560;2024-01-15T01:01:57;1.20;99.90
48376;DHT22;34178;50.904;11.560;2024-01-15T01:04:23;1.20;99.90
48376;DHT22;34178;50.904;11.560;2024-01-15T01:06:48;1.20;99.90
48376;DHT22;34178;50.904;11.560;2024-01-15T01:09:14;1.20;99.90
48376;DHT22;34178;50.904;11.560;2024-01-15T01:11:39;1.10;99.90
48376;DHT22;34178;50.904;11.560;2024-01-15T01:14:05;1.10;99.90
48376;DHT22;34178;50.904;11.560;2024-01-15T01:16:30;1.10;99.90
48376;DHT22;34178;50.904;11.560;2024-01-15T01:18:56;1.00;99.90
48376;DHT22;34178;50.904;11.560;2024-01-15T01:21:22;1.00;99.90
48376;DHT22;34178;50.904;11.560;2024-01-15T01:23:47;1.10;99.90
48376;DHT22;34178;50.904;11.560;2024-01-15T01:26:17;1.00;99.90
48376;DHT22;34178;50.904;11.560;2024-01-15T01:28:42;1.00;99.90
48376;DHT22;34178;50.904;11.560;2024-01-15T01:31:08;1.00;99.90
48376;DHT22;34178;50.904;11.560;2024-01-15T01:33:33;1.00;99.90
48376;DHT22;34178;50.904;11.560;2024-01-15T01:35:59;1.00;99.90
48376;DHT22;34178;50.904;11.560;2024-01-15T01:38:25;0.90;99.90
48376;DHT22;34178;50.904;11.560;2024-01-15T01:40:50;0.90;99.90
48376;DHT22;34178;50.904;11.560;2024-01-15T01:43:16;0.90;99.90
48376;DHT22;34178;50.904;11.560;2024-01-15T01:45:41;0.90;99.90
48376;DHT22;34178;50.904;11.560;2024-01-15T01:48:07;0.90;99.90
48376;DHT22;34178;50.904;11.560;2024-01-15T01:50:32;0.80;99.90
48376;DHT22;34178;50.904;11.560;2024-01-15T01:52:58;0.80;99.90
48376;DHT22;34178;50.904;11.560;2024-01-15T01:55:26;0.80;99.90
48376;DHT22;34178;50.904;11.560;2024-01-15T01:57:52;0.90;99.90
48376;DHT22;34178;50.904;11.560;2024-01-15T02:00:18;0.90;99.90
48376;DHT22;34178;50.904;11.560;2024-01-15T02:02:43;0.90;99.90
48376;DHT22;34178;50.904;11.560;2024-01-15T02:05:09;0.90;99.90
48376;DHT22;34178;50.904;11.560;2024-01-15T02:07:34;0.90;99.90
48376;DHT22;34178;50.904;11.560;2024-01-15T02:10:01;0.80;99.90
48376;DHT22;34178;50.904;11.560;2024-01-15T02:12:26;0.80;99.90
48376;DHT22;34178;50.904;11.560;2024-01-15T02:14:52;0.80;99.90
48376;DHT22;34178;50.904;11.560;2024-01-15T02:17:17;0.80;99.90
48376;DHT22;34178;50.904;11.560;2024-01-15T02:19:43;0.80;99.90
48376;DHT22;34178;50.904;11.560;2024-01-15T02:22:08;0.80;99.90
48376;DHT22;34178;50.904;11.560;2024-01-15T02:24:34;0.80;99.90
48376;DHT22;34178;50.904;11.560;2024-01-15T02:26:59;0.70;99.90
48376;DHT22;34178;50.904;11.560;2024-01-15T02:29:25;0.70;99.90
48376;DHT22;34178;50.904;11.560;2024-01-15T02:31:50;0.70;99.90
48376;DHT22;34178;50.904;11.560;2024-01-15T02:34:16;0.70;99.90
48376;DHT22;34178;50.904;11.560;2024-01-15T02:36:41;0.70;99.90
48376;DHT22;34178;50.904;11.560;2024-01-15T02:39:07;0.70;99.90
48376;DHT22;34178;50.904;11.560;2024-01-15T02:41:33;0.70;99.90
48376;DHT22;34178;50.904;11.560;2024-01-15T02:43:59;0.70;99.90
48376;DHT22;34178;50.904;11.560;2024-01-15T02:46:25;0.70;99.90
48376;DHT22;34178;50.904;11.560;2024-01-15T02:48:50;0.70;99.90
48376;DHT22;34178;50.904;11.560;2024-01-15T02:51:16;0.70;99.90
48376;DHT22;34178;50.904;11.560;2024-01-15T02:53:41;0.70;99.90
48376;DHT22;34178;50.904;11.560;2024-01-15T02:56:07;0.70;99.90
48376;DHT22;34178;50.904;11.560;2024-01-15T02:58:33;0.80;99.90
48376;DHT22;34178;50.904;11.560;2024-01-15T03:00:58;0.90;99.90
48376;DHT22;34178;50.904;11.560;2024-01-15T03:03:24;0.90;99.90
48376;DHT22;34178;50.904;11.560;2024-01-15T03:05:49;0.90;99.90
48376;DHT22;34178;50.904;11.560;2024-01-15T03:08:15;1.00;99.90
48376;DHT22;34178;50.904;11.560;2024-01-15T03:10:41;1.00;99.90
48376;DHT22;34178;50.904;11.560;2024-01-15T03:13:06;1.10;99.90
48376;DHT22;34178;50.904;11.560;2024-01-15T03:15:32;1.10;99.90
48376;DHT22;34178;50.904;11.560;2024-01-15T03:17:57;1.10;99.90
48376;DHT22;34178;50.904;11.560;2024-01-15T03:20:23;1.20;99.90
48376;DHT22;34178;50.904;11.560;2024-01-15T03:22:48;1.30;99.90
48376;DHT22;34178;50.904;11.560;2024-01-15T03:25:14;1.30;99.90
48376;DHT22;34178;50.904;11.560;2024-01-15T03:27:40;1.30;99.90
48376;DHT22;34178;50.904;11.560;2024-01-15T03:30:05;1.30;99.90
48376;DHT22;34178;50.904;11.560;2024-01-15T03:32:31;1.30;99.90
48376;DHT22;34178;50.904;11.560;2024-01-15T03:34:56;1.40;99.90
48376;DHT22;34178;50.904;11.560;2024-01-15T03:37:22;1.40;99.90
48376;DHT22;34178;50.904;11.560;2024-01-15T03:39:48;1.30;99.90
48376;DHT22;34178;50.904;11.560;2024-01-15T03:42:13;1.30;99.90
48376;DHT22;34178;50.904;11.560;2024-01-15T03:44:39;1.30;99.90
48376;DHT22;34178;50.904;11.560;2024-01-15T03:47:05;1.30;99.90
48376;DHT22;34178;50.904;11.560;2024-01-15T03:49:30;1.30;99.90
48376;DHT22;34178;50.904;11.560;2024-01-15T03:51:56;1.30;99.90
48376;DHT22;34178;50.904;11.560;2024-01-15T03:54:22;1.30;99.90
48376;DHT22;34178;50.904;11.560;2024-01-15T03:56:47;1.30;99.90
48376;DHT22;34178;50.904;11.560;2024-01-15T03:59:13;1.30;99.90
48376;DHT22;34178;50.904;11.560;2024-01-15T04:01:38;1.30;99.90
48376;DHT22;34178;50.904;11.560;2024-01-15T04:04:04;1.30;99.90
48376;DHT22;34178;50.904;11.560;2024-01-15T04:06:29;1.30;99.90
48376;DHT22;34178;50.904;11.560;2024-01-15T04:08:55;1.20;99.90
48376;DHT22;34178;50.904;11.560;2024-01-15T04:11:20;1.20;99.90
48376;DHT22;34178;50.904;11.560;2024-01-15T04:13:47;1.20;99.90
48376;DHT22;34178;50.904;11.560;2024-01-15T04:16:13;1.20;99.90
48376;DHT22;34178;50.904;11.560;2024-01-15T04:18:38;1.20;99.90
48376;DHT22;34178;50.904;11.560;2024-01-15T04:21:05;1.10;99.90
48376;DHT22;34178;50.904;11.560;2024-01-15T04:23:32;1.00;99.90
48376;DHT22;34178;50.904;11.560;2024-01-15T04:25:57;1.00;99.90
48376;DHT22;34178;50.904;11.560;2024-01-15T04:28:23;0.90;99.90
48376;DHT22;34178;50.904;11.560;2024-01-15T04:30:48;1.00;99.90
48376;DHT22;34178;50.904;11.560;2024-01-15T04:33:14;1.00;99.90
48376;DHT22;34178;50.904;11.560;2024-01-15T04:35:39;0.90;99.90
48376;DHT22;34178;50.904;11.560;2024-01-15T04:38:05;0.90;99.90
48376;DHT22;34178;50.904;11.560;2024-01-15T04:40:30;0.90;99.90
48376;DHT22;34178;50.904;11.560;2024-01-15T04:42:56;0.90;99.90
48376;DHT22;34178;50.904;11.560;2024-01-15T04:45:21;0.90;99.90
48376;DHT22;34178;50.904;11.560;2024-01-15T04:47:54;0.90;99.90
48376;DHT22;34178;50.904;11.560;2024-01-15T04:50:19;0.90;99.90
48376;DHT22;34178;50.904;11.560;2024-01-15T04:52:45;0.80;99.90
48376;DHT22;34178;50.904;11.560;2024-01-15T04:55:10;0.80;99.90
48376;DHT22;34178;50.904;11.560;2024-01-15T04:57:36;0.70;99.90
48376;DHT22;34178;50.904;11.560;2024-01-15T05:00:02;0.80;99.90
48376;DHT22;34178;50.904;11.560;2024-01-15T05:02:28;0.70;99.90
48376;DHT22;34178;50.904;11.560;2024-01-15T05:04:53;0.80;99.90
48376;DHT22;34178;50.904;11.560;2024-01-15T05:07:19;0.80;99.90
48376;DHT22;34178;50.904;11.560;2024-01-15T05:09:44;0.80;99.90
48376;DHT22;34178;50.904;11.560;2024-01-15T05:12:10;0.80;99.90
48376;DHT22;34178;50.904;11.560;2024-01-15T05:14:35;0.80;99.90
48376;DHT22;34178;50.904;11.560;2024-01-15T05:17:01;0.90;99.90
48376;DHT22;34178;50.904;11.560;2024-01-15T05:19:26;0.90;99.90
48376;DHT22;34178;50.904;11.560;2024-01-15T05:21:52;0.90;99.90
48376;DHT22;34178;50.904;11.560;2024-01-15T05:24:17;0.90;99.90
48376;DHT22;34178;50.904;11.560;2024-01-15T05:26:43;0.90;99.90
48376;DHT22;34178;50.904;11.560;2024-01-15T05:29:08;0.90;99.90
48376;DHT22;34178;50.904;11.560;2024-01-15T05:31:35;0.90;99.90
48376;DHT22;34178;50.904;11.560;2024-01-15T05:34:01;0.80;99.90
48376;DHT22;34178;50.904;11.560;2024-01-15T05:36:26;0.70;99.90
48376;DHT22;34178;50.904;11.560;2024-01-15T05:38:52;0.70;99.90
48376;DHT22;34178;50.904;11.560;2024-01-15T05:41:17;0.70;99.90
48376;DHT22;34178;50.904;11.560;2024-01-15T05:43:43;0.70;99.90
48376;DHT22;34178;50.904;11.560;2024-01-15T05:46:08;0.70;99.90
48376;DHT22;34178;50.904;11.560;2024-01-15T05:48:34;0.70;99.90
48376;DHT22;34178;50.904;11.560;2024-01-15T05:51:00;0.70;99.90
48376;DHT22;34178;50.904;11.560;2024-01-15T05:53:25;0.70;99.90
48376;DHT22;34178;50.904;11.560;2024-01-15T05:55:51;0.70;99.90
48376;DHT22;34178;50.904;11.560;2024-01-15T05:58:16;0.60;99.90
48376;DHT22;34178;50.904;11.560;2024-01-15T06:00:42;0.70;99.90
48376;DHT22;34178;50.904;11.560;2024-01-15T06:03:07;0.60;99.90
48376;DHT22;34178;50.904;11.560;2024-01-15T06:05:33;0.60;99.90
48376;DHT22;34178;50.904;11.560;2024-01-15T06:07:58;0.60;99.90
48376;DHT22;34178;50.904;11.560;2024-01-15T06:10:24;0.60;99.90
48376;DHT22;34178;50.904;11.560;2024-01-15T06:12:49;0.70;99.90
48376;DHT22;34178;50.904;11.560;2024-01-15T06:15:15;0.60;99.90
48376;DHT22;34178;50.904;11.560;2024-01-15T06:17:40;0.60;99.90
48376;DHT22;34178;50.904;11.560;2024-01-15T06:20:06;0.70;99.90
48376;DHT22;34178;50.904;11.560;2024-01-15T06:22:32;0.60;99.90
48376;DHT22;34178;50.904;11.560;2024-01-15T06:24:57;0.60;99.90
48376;DHT22;34178;50.904;11.560;2024-01-15T06:27:23;0.60;99.90
48376;DHT22;34178;50.904;11.560;2024-01-15T06:29:48;0.70;99.90
48376;DHT22;34178;50.904;11.560;2024-01-15T06:32:14;0.70;99.90
48376;DHT22;34178;50.904;11.560;2024-01-15T06:34:40;0.70;99.90
48376;DHT22;34178;50.904;11.560;2024-01-15T06:37:05;0.70;99.90
48376;DHT22;34178;50.904;11.560;2024-01-15T06:39:31;0.80;99.90
48376;DHT22;34178;50.904;11.560;2024-01-15T06:41:56;0.80;99.90
48376;DHT22;34178;50.904;11.560;2024-01-15T06:44:22;0.80;99.90
48376;DHT22;34178;50.904;11.560;2024-01-15T06:46:48;0.80;99.90
48376;DHT22;34178;50.904;11.560;2024-01-15T06:49:13;0.80;99.90
48376;DHT22;34178;50.904;11.560;2024-01-15T06:51:39;0.80;99.90
48376;DHT22;34178;50.904;11.560;2024-01-15T06:54:04;0.80;99.90
48376;DHT22;34178;50.904;11.560;2024-01-15T06:56:31;0.80;99.90
48376;DHT22;34178;50.904;11.560;2024-01-15T06:58:56;0.70;99.90
48376;DHT22;34178;50.904;11.560;2024-01-15T07:01:22;0.70;99.90
48376;DHT22;34178;50.904;11.560;2024-01-15T07:03:47;0.70;99.90
48376;DHT22;34178;50.904;11.560;2024-01-15T07:06:13;0.70;99.90
48376;DHT22;34178;50.904;11.560;2024-01-15T07:08:39;0.80;99.90
48376;DHT22;34178;50.904;11.560;2024-01-15T07:11:05;0.80;99.90
48376;DHT22;34178;50.904;11.560;2024-01-15T07:13:31;0.80;99.90
48376;DHT22;34178;50.904;11.560;2024-01-15T07:15:56;0.80;99.90
48376;DHT22;34178;50.904;11.560;2024-01-15T07:18:22;0.80;99.90
48376;DHT22;34178;50.904;11.560;2024-01-15T07:20:48;0.90;99.90
48376;DHT22;34178;50.904;11.560;2024-01-15T07:23:14;0.80;99.90
48376;DHT22;34178;50.904;11.560;2024-01-15T07:25:39;0.90;99.90
48376;DHT22;34178;50.904;11.560;2024-01-15T07:28:05;0.80;99.90
48376;DHT22;34178;50.904;11.560;2024-01-15T07:30:31;0.90;99.90
48376;DHT22;34178;50.904;11.560;2024-01-15T07:32:56;0.90;99.90
48376;DHT22;34178;50.904;11.560;2024-01-15T07:35:22;0.90;99.90
48376;DHT22;34178;50.904;11.560;2024-01-15T07:37:47;0.90;99.90
48376;DHT22;34178;50.904;11.560;2024-01-15T07:40:13;1.00;99.90
48376;DHT22;34178;50.904;11.560;2024-01-15T07:42:38;1.00;99.90
48376;DHT22;34178;50.904;11.560;2024-01-15T07:45:05;1.00;99.90
48376;DHT22;34178;50.904;11.560;2024-01-15T07:47:30;1.00;99.90
48376;DHT22;34178;50.904;11.560;2024-01-15T07:49:56;1.00;99.90
48376;DHT22;34178;50.904;11.560;2024-01-15T07:52:22;1.10;99.90
48376;DHT22;34178;50.904;11.560;2024-01-15T07:54:47;1.10;99.90
48376;DHT22;34178;50.904;11.560;2024-01-15T07:57:13;1.10;99.90
48376;DHT22;34178;50.904;11.560;2024-01-15T07:59:38;1.10;99.90
48376;DHT22;34178;50.904;11.560;2024-01-15T08:02:05;1.10;99.90
48376;DHT22;34178;50.904;11.560;2024-01-15T08:04:31;1.10;99.90
48376;DHT22;34178;50.904;11.560;2024-01-15T08:06:56;1.10;99.90
48376;DHT22;34178;50.904;11.560;2024-01-15T08:09:22;1.10;99.90
48376;DHT22;34178;50.904;11.560;2024-01-15T08:11:48;1.10;99.90
48376;DHT22;34178;50.904;11.560;2024-01-15T08:14:14;1.20;99.90
48376;DHT22;34178;50.904;11.560;2024-01-15T08:16:40;1.20;99.90
48376;DHT22;34178;50.904;11.560;2024-01-15T08:19:06;1.20;99.90
48376;DHT22;34178;50.904;11.560;2024-01-15T08:21:32;1.20;99.90
48376;DHT22;34178;50.904;11.560;2024-01-15T08:23:58;1.20;99.90
48376;DHT22;34178;50.904;11.560;2024-01-15T08:26:24;1.20;99.90
48376;DHT22;34178;50.904;11.560;2024-01-15T08:28:49;1.30;99.90
48376;DHT22;34178;50.904;11.560;2024-01-15T08:31:15;1.20;99.90
48376;DHT22;34178;50.904;11.560;2024-01-15T08:33:40;1.30;99.90
48376;DHT22;34178;50.904;11.560;2024-01-15T08:36:06;1.30;99.90
48376;DHT22;34178;50.904;11.560;2024-01-15T08:38:32;1.30;99.90
48376;DHT22;34178;50.904;11.560;2024-01-15T08:40:57;1.40;99.90
48376;DHT22;34178;50.904;11.560;2024-01-15T08:43:26;1.40;99.90
48376;DHT22;34178;50.904;11.560;2024-01-15T08:45:52;1.40;99.90
48376;DHT22;34178;50.904;11.560;2024-01-15T08:48:17;1.40;99.90
48376;DHT22;34178;50.904;11.560;2024-01-15T08:50:43;1.40;99.90
48376;DHT22;34178;50.904;11.560;2024-01-15T08:53:11;1.40;99.90
48376;DHT22;34178;50.904;11.560;2024-01-15T08:55:37;1.50;99.90
48376;DHT22;34178;50.904;11.560;2024-01-15T08:58:03;1.50;99.90
48376;DHT22;34178;50.904;11.560;2024-01-15T09:00:29;1.50;99.90
48376;DHT22;34178;50.904;11.560;2024-01-15T09:02:55;1.50;99.90
48376;DHT22;34178;50.904;11.560;2024-01-15T09:05:21;1.50;99.90
48376;DHT22;34178;50.904;11.560;2024-01-15T09:07:47;1.50;99.90
48376;DHT22;34178;50.904;11.560;2024-01-15T09:10:13;1.60;99.90
48376;DHT22;34178;50.904;11.560;2024-01-15T09:12:39;1.70;99.90
48376;DHT22;34178;50.904;11.560;2024-01-15T09:15:05;1.70;99.90
48376;DHT22;34178;50.904;11.560;2024-01-15T09:17:31;1.70;99.90
48376;DHT22;34178;50.904;11.560;2024-01-15T09:19:56;1.70;99.90
48376;DHT22;34178;50.904;11.560;2024-01-15T09:22:22;1.70;99.90
48376;DHT22;34178;50.904;11.560;2024-01-15T09:24:48;1.70;99.90
48376;DHT22;34178;50.904;11.560;2024-01-15T09:27:13;1.80;99.90
48376;DHT22;34178;50.904;11.560;2024-01-15T09:29:39;1.80;99.90
48376;DHT22;34178;50.904;11.560;2024-01-15T09:32:07;1.80;99.90
48376;DHT22;34178;50.904;11.560;2024-01-15T09:34:33;1.80;99.90
48376;DHT22;34178;50.904;11.560;2024-01-15T09:36:59;1.90;99.90
48376;DHT22;34178;50.904;11.560;2024-01-15T09:39:30;1.90;99.90
48376;DHT22;34178;50.904;11.560;2024-01-15T09:41:56;2.10;99.90
48376;DHT22;34178;50.904;11.560;2024-01-15T09:44:21;2.20;99.90
48376;DHT22;34178;50.904;11.560;2024-01-15T09:46:47;2.20;99.90
48376;DHT22;34178;50.904;11.560;2024-01-15T09:49:18;2.20;99.90
48376;DHT22;34178;50.904;11.560;2024-01-15T09:51:44;2.30;99.90
48376;DHT22;34178;50.904;11.560;2024-01-15T09:54:10;2.40;99.90
48376;DHT22;34178;50.904;11.560;2024-01-15T09:56:35;2.40;99.90
48376;DHT22;34178;50.904;11.560;2024-01-15T09:59:02;2.50;99.90
48376;DHT22;34178;50.904;11.560;2024-01-15T10:01:29;2.50;99.90
48376;DHT22;34178;50.904;11.560;2024-01-15T10:03:56;2.40;99.90
48376;DHT22;34178;50.904;11.560;2024-01-15T10:06:22;2.40;99.90
48376;DHT22;34178;50.904;11.560;2024-01-15T10:08:48;2.40;99.90
48376;DHT22;34178;50.904;11.560;2024-01-15T10:11:14;2.40;99.90
48376;DHT22;34178;50.904;11.560;2024-01-15T10:13:39;2.30;99.90
48376;DHT22;34178;50.904;11.560;2024-01-15T10:16:05;2.20;99.90
48376;DHT22;34178;50.904;11.560;2024-01-15T10:18:31;2.20;99.90
48376;DHT22;34178;50.904;11.560;2024-01-15T10:20:57;2.20;99.90
48376;DHT22;34178;50.904;11.560;2024-01-15T10:23:23;2.20;99.90
48376;DHT22;34178;50.904;11.560;2024-01-15T10:25:49;2.20;99.90
48376;DHT22;34178;50.904;11.560;2024-01-15T10:28:17;2.20;99.90
48376;DHT22;34178;50.904;11.560;2024-01-15T10:30:44;2.20;99.90
48376;DHT22;34178;50.904;11.560;2024-01-15T10:33:10;2.40;99.90
48376;DHT22;34178;50.904;11.560;2024-01-15T10:35:35;2.50;99.90
48376;DHT22;34178;50.904;11.560;2024-01-15T10:38:01;2.50;99.90
48376;DHT22;34178;50.904;11.560;2024-01-15T10:40:28;2.50;99.90
48376;DHT22;34178;50.904;11.560;2024-01-15T10:42:53;2.50;99.90
48376;DHT22;34178;50.904;11.560;2024-01-15T10:45:19;2.60;99.90
48376;DHT22;34178;50.904;11.560;2024-01-15T10:47:44;2.60;99.90
48376;DHT22;34178;50.904;11.560;2024-01-15T10:50:11;2.60;99.90
48376;DHT22;34178;50.904;11.560;2024-01-15T10:52:37;2.70;99.90
48376;DHT22;34178;50.904;11.560;2024-01-15T10:55:03;2.70;99.90
48376;DHT22;34178;50.904;11.560;2024-01-15T10:57:29;2.70;99.90
48376;DHT22;34178;50.904;11.560;2024-01-15T10:59:55;2.70;99.90
48376;DHT22;34178;50.904;11.560;2024-01-15T11:02:21;2.70;99.90
48376;DHT22;34178;50.904;11.560;2024-01-15T11:04:46;2.60;99.90
48376;DHT22;34178;50.904;11.560;2024-01-15T11:07:12;2.60;99.90
48376;DHT22;34178;50.904;11.560;2024-01-15T11:09:38;2.50;99.90
48376;DHT22;34178;50.904;11.560;2024-01-15T11:12:11;2.40;99.90
48376;DHT22;34178;50.904;11.560;2024-01-15T11:14:40;2.40;99.90
48376;DHT22;34178;50.904;11.560;2024-01-15T11:17:08;2.40;99.90
48376;DHT22;34178;50.904;11.560;2024-01-15T11:19:38;2.50;99.90
48376;DHT22;34178;50.904;11.560;2024-01-15T11:22:18;2.50;99.90
48376;DHT22;34178;50.904;11.560;2024-01-15T11:24:53;2.60;99.90
48376;DHT22;34178;50.904;11.560;2024-01-15T11:27:18;2.80;99.90
48376;DHT22;34178;50.904;11.560;2024-01-15T11:30:06;3.10;99.90
48376;DHT22;34178;50.904;11.560;2024-01-15T11:32:34;2.90;99.90
48376;DHT22;34178;50.904;11.560;2024-01-15T11:35:01;2.90;99.90
48376;DHT22;34178;50.904;11.560;2024-01-15T11:40:19;3.10;99.90
48376;DHT22;34178;50.904;11.560;2024-01-15T11:42:45;3.40;99.90
48376;DHT22;34178;50.904;11.560;2024-01-15T11:45:11;4.10;99.90
48376;DHT22;34178;50.904;11.560;2024-01-15T11:50:21;5.10;98.70
48376;DHT22;34178;50.904;11.560;2024-01-15T11:52:51;4.70;98.70
48376;DHT22;34178;50.904;11.560;2024-01-15T11:55:28;5.10;98.50
48376;DHT22;34178;50.904;11.560;2024-01-15T11:57:55;5.40;97.90
48376;DHT22;34178;50.904;11.560;2024-01-15T12:00:21;5.30;98.10
48376;DHT22;34178;50.904;11.560;2024-01-15T12:02:47;5.90;97.20
48376;DHT22;34178;50.904;11.560;2024-01-15T12:05:14;6.30;96.50
48376;DHT22;34178;50.904;11.560;2024-01-15T12:07:40;6.10;96.20
48376;DHT22;34178;50.904;11.560;2024-01-15T12:10:12;6.30;96.40
48376;DHT22;34178;50.904;11.560;2024-01-15T12:15:22;6.50;95.60
48376;DHT22;34178;50.904;11.560;2024-01-15T12:17:47;6.30;95.80
48376;DHT22;34178;50.904;11.560;2024-01-15T12:20:13;6.00;96.20
48376;DHT22;34178;50.904;11.560;2024-01-15T12:22:39;5.60;96.30
48376;DHT22;34178;50.904;11.560;2024-01-15T12:25:05;4.90;97.00
48376;DHT22;34178;50.904;11.560;2024-01-15T12:27:31;4.50;97.60
48376;DHT22;34178;50.904;11.560;2024-01-15T12:29:57;4.40;98.00
48376;DHT22;34178;50.904;11.560;2024-01-15T12:32:24;4.20;98.20
48376;DHT22;34178;50.904;11.560;2024-01-15T12:34:50;4.20;98.30
48376;DHT22;34178;50.904;11.560;2024-01-15T12:37:17;4.10;98.60
48376;DHT22;34178;50.904;11.560;2024-01-15T12:39:43;3.90;98.60
48376;DHT22;34178;50.904;11.560;2024-01-15T12:42:09;3.80;98.90
48376;DHT22;34178;50.904;11.560;2024-01-15T12:44:35;3.60;99.00
48376;DHT22;34178;50.904;11.560;2024-01-15T12:47:06;3.50;99.20
48376;DHT22;34178;50.904;11.560;2024-01-15T12:49:32;3.50;99.40
48376;DHT22;34178;50.904;11.560;2024-01-15T12:51:58;3.30;99.70
48376;DHT22;34178;50.904;11.560;2024-01-15T12:54:24;3.10;99.90
48376;DHT22;34178;50.904;11.560;2024-01-15T12:56:50;3.00;99.90
48376;DHT22;34178;50.904;11.560;2024-01-15T12:59:16;3.00;99.90
48376;DHT22;34178;50.904;11.560;2024-01-15T13:01:42;3.00;99.90
48376;DHT22;34178;50.904;11.560;2024-01-15T13:04:07;3.10;99.90
48376;DHT22;34178;50.904;11.560;2024-01-15T13:06:34;3.10;99.90
48376;DHT22;34178;50.904;11.560;2024-01-15T13:09:00;3.10;99.90
48376;DHT22;34178;50.904;11.560;2024-01-15T13:11:26;3.10;99.90
48376;DHT22;34178;50.904;11.560;2024-01-15T13:13:52;3.10;99.90
48376;DHT22;34178;50.904;11.560;2024-01-15T13:16:18;3.00;99.90
48376;DHT22;34178;50.904;11.560;2024-01-15T13:18:45;3.00;99.90
48376;DHT22;34178;50.904;11.560;2024-01-15T13:21:11;2.90;99.90
48376;DHT22;34178;50.904;11.560;2024-01-15T13:23:38;2.80;99.90
48376;DHT22;34178;50.904;11.560;2024-01-15T13:26:04;2.80;99.90
48376;DHT22;34178;50.904;11.560;2024-01-15T13:28:30;2.80;99.90
48376;DHT22;34178;50.904;11.560;2024-01-15T13:30:56;2.70;99.90
48376;DHT22;34178;50.904;11.560;2024-01-15T13:33:21;2.70;99.90
48376;DHT22;34178;50.904;11.560;2024-01-15T13:35:47;2.70;99.90
48376;DHT22;34178;50.904;11.560;2024-01-15T13:38:15;2.60;99.90
48376;DHT22;34178;50.904;11.560;2024-01-15T13:40:41;2.60;99.90
48376;DHT22;34178;50.904;11.560;2024-01-15T13:43:06;2.60;99.90
48376;DHT22;34178;50.904;11.560;2024-01-15T13:45:33;2.60;99.90
48376;DHT22;34178;50.904;11.560;2024-01-15T13:47:59;2.60;99.90
48376;DHT22;34178;50.904;11.560;2024-01-15T13:50:25;2.50;99.90
48376;DHT22;34178;50.904;11.560;2024-01-15T13:52:50;2.50;99.90
48376;DHT22;34178;50.904;11.560;2024-01-15T13:55:16;2.50;99.90
48376;DHT22;34178;50.904;11.560;2024-01-15T13:57:41;2.50;99.90
48376;DHT22;34178;50.904;11.560;2024-01-15T14:00:07;2.40;99.90
48376;DHT22;34178;50.904;11.560;2024-01-15T14:02:36;2.40;99.90
48376;DHT22;34178;50.904;11.560;2024-01-15T14:05:02;2.50;99.90
48376;DHT22;34178;50.904;11.560;2024-01-15T14:07:28;2.50;99.90
48376;DHT22;34178;50.904;11.560;2024-01-15T14:09:53;2.50;99.90
48376;DHT22;34178;50.904;11.560;2024-01-15T14:12:19;2.50;99.90
48376;DHT22;34178;50.904;11.560;2024-01-15T14:14:44;2.50;99.90
48376;DHT22;34178;50.904;11.560;2024-01-15T14:17:10;2.50;99.90
48376;DHT22;34178;50.904;11.560;2024-01-15T14:19:35;2.50;99.90
48376;DHT22;34178;50.904;11.560;2024-01-15T14:22:01;2.60;99.90
48376;DHT22;34178;50.904;11.560;2024-01-15T14:24:26;2.50;99.90
48376;DHT22;34178;50.904;11.560;2024-01-15T14:26:52;2.60;99.90
48376;DHT22;34178;50.904;11.560;2024-01-15T14:29:17;2.60;99.90
48376;DHT22;34178;50.904;11.560;2024-01-15T14:31:47;2.60;99.90
48376;DHT22;34178;50.904;11.560;2024-01-15T14:34:13;2.60;99.90
48376;DHT22;34178;50.904;11.560;2024-01-15T14:36:38;2.60;99.90
48376;DHT22;34178;50.904;11.560;2024-01-15T14:39:04;2.60;99.90
48376;DHT22;34178;50.904;11.560;2024-01-15T14:41:30;2.60;99.90
48376;DHT22;34178;50.904;11.560;2024-01-15T14:43:55;2.60;99.90
48376;DHT22;34178;50.904;11.560;2024-01-15T14:46:22;2.60;99.90
48376;DHT22;34178;50.904;11.560;2024-01-15T14:48:48;2.60;99.90
48376;DHT22;34178;50.904;11.560;2024-01-15T14:51:14;2.50;99.90
48376;DHT22;34178;50.904;11.560;2024-01-15T14:53:39;2.60;99.90
48376;DHT22;34178;50.904;11.560;2024-01-15T14:56:05;2.50;99.90
48376;DHT22;34178;50.904;11.560;2024-01-15T14:58:31;2.60;99.90
48376;DHT22;34178;50.904;11.560;2024-01-15T15:00:57;2.50;99.90
48376;DHT22;34178;50.904;11.560;2024-01-15T15:03:22;2.50;99.90
48376;DHT22;34178;50.904;11.560;2024-01-15T15:05:48;2.50;99.90
48376;DHT22;34178;50.904;11.560;2024-01-15T15:08:14;2.50;99.90
48376;DHT22;34178;50.904;11.560;2024-01-15T15:10:39;2.50;99.90
48376;DHT22;34178;50.904;11.560;2024-01-15T15:13:06;2.50;99.90
48376;DHT22;34178;50.904;11.560;2024-01-15T15:15:31;2.50;99.90
48376;DHT22;34178;50.904;11.560;2024-01-15T15:17:57;2.50;99.90
48376;DHT22;34178;50.904;11.560;2024-01-15T15:20:23;2.50;99.90
48376;DHT22;34178;50.904;11.560;2024-01-15T15:22:49;2.50;99.90
48376;DHT22;34178;50.904;11.560;2024-01-15T15:25:14;2.50;99.90
48376;DHT22;34178;50.904;11.560;2024-01-15T15:27:40;2.40;99.90
48376;DHT22;34178;50.904;11.560;2024-01-15T15:30:06;2.40;99.90